Time;durP1;ratioP1;P1;durP2;ratioP2;P2;SDS_P1;SDS_P2;PMS_P1;PMS_P2;Temp;Humidity;BMP_temperature;BMP_pressure;BME280_temperature;BME280_humidity;BME280_pressure;Samples;Min_cycle;Max_cycle;Signal;HPM_P1;HPM_P2
2022/04/23 00:01:01;;;;;;;5.03;4.55;;;10.20;99.90;;;;;;5089860;28;20082;-49
2022/04/23 00:03:27;;;;;;;5.90;5.00;;;10.20;99.90;;;;;;5089408;28;20385;-48
2022/04/23 00:05:52;;;;;;;6.53;4.90;;;10.10;99.90;;;;;;5089753;28;20489;-49
2022/04/23 00:08:18;;;;;;;6.80;5.20;;;10.00;99.90;;;;;;5088768;28;20351;-49
2022/04/23 00:10:43;;;;;;;5.88;5.13;;;10.00;99.90;;;;;;5086692;28;20166;-48
2022/04/23 00:13:09;;;;;;;5.25;4.63;;;9.90;99.90;;;;;;5073184;28;20028;-48
2022/04/23 00:15:38;;;;;;;5.40;4.90;;;9.90;99.90;;;;;;5089385;28;20024;-49
2022/04/23 00:18:08;;;;;;;5.97;5.13;;;9.90;99.90;;;;;;5089369;28;20047;-52
2022/04/23 00:20:35;;;;;;;6.35;5.18;;;9.80;99.90;;;;;;5089346;28;20031;-50
2022/04/23 00:23:01;;;;;;;5.65;5.07;;;9.70;99.90;;;;;;5087202;28;20039;-50
2022/04/23 00:25:27;;;;;;;6.45;5.22;;;9.60;99.90;;;;;;5089208;28;20020;-49
2022/04/23 00:27:53;;;;;;;6.30;5.70;;;9.60;99.90;;;;;;5067716;28;20079;-50
2022/04/23 00:30:19;;;;;;;6.35;5.65;;;9.50;99.90;;;;;;5059434;28;20016;-50
2022/04/23 00:32:45;;;;;;;7.00;5.65;;;9.50;99.90;;;;;;5057388;28;20393;-48
2022/04/23 00:35:15;;;;;;;7.00;6.03;;;9.50;99.90;;;;;;5058066;28;20021;-47
2022/04/23 00:37:41;;;;;;;6.43;5.70;;;9.40;99.90;;;;;;5054738;28;20068;-49
2022/04/23 00:40:08;;;;;;;5.68;5.10;;;9.30;99.90;;;;;;5058776;28;20032;-52
2022/04/23 00:42:51;;;;;;;6.47;5.72;;;9.30;99.90;;;;;;5064936;28;20028;-50
2022/04/23 00:45:21;;;;;;;6.82;5.90;;;9.20;99.90;;;;;;5061150;28;20489;-48
2022/04/23 00:47:47;;;;;;;6.55;5.40;;;9.20;99.90;;;;;;5058892;28;20305;-52
2022/04/23 00:50:13;;;;;;;8.63;6.20;;;9.20;99.90;;;;;;5059039;28;20177;-50
2022/04/23 00:52:39;;;;;;;7.68;6.43;;;9.20;99.90;;;;;;5056512;28;20498;-48
2022/04/23 00:55:06;;;;;;;8.15;6.40;;;9.20;99.90;;;;;;5058997;28;20055;-49
2022/04/23 00:57:33;;;;;;;7.30;6.45;;;9.10;99.90;;;;;;5058347;28;20148;-49
2022/04/23 01:00:00;;;;;;;7.32;5.93;;;9.10;99.90;;;;;;5056528;28;20028;-48
2022/04/23 01:02:26;;;;;;;7.68;6.53;;;9.10;99.90;;;;;;5057621;28;20123;-50
2022/04/23 01:04:54;;;;;;;8.35;6.20;;;9.00;99.90;;;;;;5060020;28;20552;-51
2022/04/23 01:07:20;;;;;;;7.57;6.80;;;9.00;99.90;;;;;;5060824;28;20606;-48
2022/04/23 01:09:48;;;;;;;9.18;6.68;;;8.90;99.90;;;;;;5057701;28;20687;-48
2022/04/23 01:12:13;;;;;;;7.90;7.03;;;8.90;99.90;;;;;;5056404;28;20017;-49
2022/04/23 01:14:58;;;;;;;8.20;6.57;;;8.90;99.90;;;;;;5057539;28;20078;-49
2022/04/23 01:17:24;;;;;;;9.60;6.97;;;8.90;99.90;;;;;;5057875;28;20024;-49
2022/04/23 01:19:49;;;;;;;9.13;6.95;;;8.80;99.90;;;;;;5057724;28;20119;-47
2022/04/23 01:22:16;;;;;;;8.90;7.40;;;8.80;99.90;;;;;;5058070;28;20422;-50
2022/04/23 01:24:42;;;;;;;11.00;8.27;;;8.70;99.90;;;;;;5056999;28;20029;-48
2022/04/23 01:27:09;;;;;;;10.27;8.38;;;8.70;99.90;;;;;;5057281;28;20028;-49
2022/04/23 01:29:34;;;;;;;9.40;7.97;;;8.70;99.90;;;;;;5059375;28;20032;-50
2022/04/23 01:32:04;;;;;;;10.82;8.45;;;8.60;99.90;;;;;;5057118;28;20031;-46
2022/04/23 01:34:29;;;;;;;13.73;8.73;;;8.60;99.90;;;;;;5058067;28;20028;-48
2022/04/23 01:36:55;;;;;;;10.90;8.52;;;8.60;99.90;;;;;;5058780;28;20031;-49
2022/04/23 01:39:20;;;;;;;10.80;9.13;;;8.50;99.90;;;;;;5055943;28;20032;-48
2022/04/23 01:41:47;;;;;;;12.60;9.38;;;8.50;99.90;;;;;;5060212;28;20040;-49
2022/04/23 01:44:13;;;;;;;10.13;8.82;;;8.50;99.90;;;;;;5065075;28;20375;-50
2022/04/23 01:46:38;;;;;;;11.77;8.90;;;8.40;99.90;;;;;;5058824;28;20032;-48
2022/04/23 01:49:04;;;;;;;11.55;9.25;;;8.40;99.90;;;;;;5059450;28;20035;-48
2022/04/23 01:51:29;;;;;;;10.73;9.07;;;8.40;99.90;;;;;;5057656;28;20050;-49
2022/04/23 01:53:55;;;;;;;11.98;9.18;;;8.40;99.90;;;;;;5057597;28;20032;-49
2022/04/23 01:56:21;;;;;;;10.60;8.75;;;8.40;99.90;;;;;;5058497;28;20037;-49
2022/04/23 01:58:46;;;;;;;10.52;9.07;;;8.30;99.90;;;;;;5056624;28;20368;-51
2022/04/23 02:01:12;;;;;;;11.63;9.00;;;8.30;99.90;;;;;;5056737;28;20037;-49
2022/04/23 02:03:37;;;;;;;14.02;9.60;;;8.30;99.90;;;;;;5058271;28;20036;-50
2022/04/23 02:06:03;;;;;;;12.80;8.95;;;8.30;99.90;;;;;;5056456;28;20025;-48
2022/04/23 02:08:28;;;;;;;12.32;8.75;;;8.20;99.90;;;;;;5058653;28;20100;-50
2022/04/23 02:10:54;;;;;;;14.20;9.65;;;8.20;99.90;;;;;;5057601;28;20474;-48
2022/04/23 02:13:20;;;;;;;11.57;8.98;;;8.20;99.90;;;;;;5068556;28;20367;-51
2022/04/23 02:15:46;;;;;;;10.88;9.05;;;8.10;99.90;;;;;;5068337;28;20458;-48
2022/04/23 02:18:13;;;;;;;12.68;10.20;;;8.10;99.90;;;;;;5068197;28;20016;-48
2022/04/23 02:20:39;;;;;;;12.15;9.55;;;8.10;99.90;;;;;;5067974;28;20108;-50
2022/04/23 02:23:04;;;;;;;14.63;9.70;;;8.00;99.90;;;;;;5067464;28;20424;-48
2022/04/23 02:25:34;;;;;;;13.45;10.60;;;8.10;99.90;;;;;;5068065;28;20029;-48
2022/04/23 02:28:00;;;;;;;11.90;9.98;;;8.00;99.90;;;;;;5067511;28;20042;-49
2022/04/23 02:30:25;;;;;;;14.13;10.30;;;7.90;99.90;;;;;;5068230;28;20025;-47
2022/04/23 02:32:51;;;;;;;11.63;9.50;;;7.90;99.90;;;;;;5069551;28;20156;-49
2022/04/23 02:35:18;;;;;;;13.32;10.15;;;7.90;99.90;;;;;;5071572;28;20099;-49
2022/04/23 02:37:48;;;;;;;13.27;10.27;;;7.90;99.90;;;;;;5071510;28;20027;-48
2022/04/23 02:40:15;;;;;;;12.57;9.65;;;7.80;99.90;;;;;;5071735;28;20421;-47
2022/04/23 02:42:41;;;;;;;12.60;9.73;;;7.70;99.90;;;;;;5075715;28;20431;-48
2022/04/23 02:45:09;;;;;;;13.15;10.80;;;7.70;99.90;;;;;;5071429;28;20481;-51
2022/04/23 02:47:43;;;;;;;12.98;9.75;;;7.70;99.90;;;;;;5070098;28;20036;-48
2022/04/23 02:50:12;;;;;;;13.05;9.90;;;7.70;99.90;;;;;;5071125;28;20055;-49
2022/04/23 02:52:40;;;;;;;15.85;10.75;;;7.60;99.90;;;;;;5070429;28;20208;-49
2022/04/23 02:55:06;;;;;;;14.63;10.10;;;7.60;99.90;;;;;;5070870;28;20020;-49
2022/04/23 02:57:32;;;;;;;15.13;11.43;;;7.60;99.90;;;;;;5070731;28;20020;-48
2022/04/23 02:59:57;;;;;;;11.23;9.52;;;7.50;99.90;;;;;;5070998;28;20474;-48
2022/04/23 03:02:23;;;;;;;14.40;9.55;;;7.50;99.90;;;;;;5070043;28;20036;-48
2022/04/23 03:04:48;;;;;;;16.52;10.98;;;7.50;99.90;;;;;;5070801;28;20025;-47
2022/04/23 03:07:14;;;;;;;14.57;10.38;;;7.40;99.90;;;;;;5069324;28;20021;-48
2022/04/23 03:09:39;;;;;;;15.20;11.52;;;7.40;99.90;;;;;;5071081;28;20043;-47
2022/04/23 03:12:05;;;;;;;13.75;10.05;;;7.40;99.90;;;;;;5074224;28;20709;-47
2022/04/23 03:14:32;;;;;;;13.88;10.70;;;7.40;99.90;;;;;;5082651;28;20028;-47
2022/04/23 03:16:58;;;;;;;14.93;11.55;;;7.30;99.90;;;;;;5091004;28;20487;-48
2022/04/23 03:19:24;;;;;;;14.43;10.32;;;7.30;99.90;;;;;;5090738;28;20028;-48
2022/04/23 03:21:49;;;;;;;14.82;11.02;;;7.30;99.90;;;;;;5090104;28;20028;-49
2022/04/23 03:24:15;;;;;;;15.57;11.70;;;7.30;99.90;;;;;;5090503;28;20028;-47
2022/04/23 03:26:41;;;;;;;14.93;11.20;;;7.30;99.90;;;;;;5088881;28;20525;-47
2022/04/23 03:29:07;;;;;;;13.48;10.63;;;7.20;99.90;;;;;;5089262;28;20017;-47
2022/04/23 03:31:32;;;;;;;16.08;12.10;;;7.20;99.90;;;;;;5090288;28;20435;-51
2022/04/23 03:33:58;;;;;;;13.80;11.30;;;7.20;99.90;;;;;;5090246;28;20028;-47
2022/04/23 03:36:23;;;;;;;16.08;12.07;;;7.20;99.90;;;;;;5090821;28;20095;-48
2022/04/23 03:38:49;;;;;;;15.30;11.88;;;7.10;99.90;;;;;;5090308;28;20020;-50
2022/04/23 03:41:15;;;;;;;16.58;12.30;;;7.10;99.90;;;;;;5084887;28;20482;-48
2022/04/23 03:43:40;;;;;;;14.75;11.20;;;7.00;99.90;;;;;;5081079;28;20059;-47
2022/04/23 03:46:06;;;;;;;14.85;11.93;;;7.00;99.90;;;;;;5090290;28;20024;-49
2022/04/23 03:48:32;;;;;;;15.45;11.52;;;7.00;99.90;;;;;;5090397;28;20103;-51
2022/04/23 03:50:57;;;;;;;13.65;10.95;;;6.90;99.90;;;;;;5090218;28;20115;-50
2022/04/23 03:53:23;;;;;;;19.02;11.55;;;6.80;99.90;;;;;;5086614;28;20063;-50
2022/04/23 03:55:48;;;;;;;15.75;11.32;;;6.80;99.90;;;;;;5060972;28;20020;-48
2022/04/23 03:58:14;;;;;;;13.68;10.93;;;6.80;99.90;;;;;;5065499;28;20017;-48
2022/04/23 04:00:39;;;;;;;16.73;12.18;;;6.70;99.90;;;;;;5062730;28;20395;-48
2022/04/23 04:03:05;;;;;;;17.05;12.55;;;6.70;99.90;;;;;;5058062;28;20514;-50
2022/04/23 04:05:31;;;;;;;18.23;12.82;;;6.70;99.90;;;;;;5061060;28;20127;-47
2022/04/23 04:07:57;;;;;;;16.45;12.18;;;6.60;99.90;;;;;;5064504;28;20172;-53
2022/04/23 04:10:23;;;;;;;15.13;12.27;;;6.60;99.90;;;;;;5059587;28;20047;-47
2022/04/23 04:12:51;;;;;;;14.70;12.30;;;6.60;99.90;;;;;;5067888;28;20032;-47
2022/04/23 04:15:19;;;;;;;19.75;11.88;;;6.60;99.90;;;;;;5063588;28;20024;-48
2022/04/23 04:17:48;;;;;;;18.48;13.50;;;6.60;99.90;;;;;;5056876;28;20028;-47
2022/04/23 04:20:14;;;;;;;18.20;13.45;;;6.60;99.90;;;;;;5058876;28;20542;-47
2022/04/23 04:22:41;;;;;;;16.65;12.77;;;6.60;99.90;;;;;;5057585;28;20405;-48
2022/04/23 04:25:07;;;;;;;17.98;13.45;;;6.60;99.90;;;;;;5057988;28;20453;-49
2022/04/23 04:27:37;;;;;;;16.83;12.45;;;6.50;99.90;;;;;;5056909;28;20486;-47
2022/04/23 04:30:04;;;;;;;17.40;12.37;;;6.50;99.90;;;;;;5058841;28;20051;-48
2022/04/23 04:32:30;;;;;;;18.80;14.10;;;6.50;99.90;;;;;;5057585;28;20706;-48
2022/04/23 04:34:56;;;;;;;20.10;13.57;;;6.50;99.90;;;;;;5057397;28;20229;-48
2022/04/23 04:37:21;;;;;;;18.75;13.50;;;6.50;99.90;;;;;;5060004;28;20081;-48
2022/04/23 04:39:47;;;;;;;18.58;13.95;;;6.50;99.90;;;;;;5054726;28;20108;-49
2022/04/23 04:42:12;;;;;;;19.45;13.75;;;6.50;99.90;;;;;;5063663;28;20032;-48
2022/04/23 04:44:38;;;;;;;20.65;14.20;;;6.50;99.90;;;;;;5084655;28;20031;-47
2022/04/23 04:47:05;;;;;;;16.58;13.68;;;6.50;99.90;;;;;;5075936;28;20252;-49
2022/04/23 04:49:31;;;;;;;17.73;13.60;;;6.50;99.90;;;;;;5083663;28;20028;-49
2022/04/23 04:51:56;;;;;;;18.42;13.68;;;6.50;99.90;;;;;;5071521;28;20083;-48
2022/04/23 04:54:23;;;;;;;20.33;14.30;;;6.50;99.90;;;;;;5082434;28;20024;-47
2022/04/23 04:56:49;;;;;;;17.65;13.82;;;6.50;99.90;;;;;;5068223;28;20433;-50
2022/04/23 04:59:15;;;;;;;17.80;14.18;;;6.50;99.90;;;;;;5078911;28;20028;-48
2022/04/23 05:01:41;;;;;;;17.60;13.75;;;6.50;99.90;;;;;;5078554;28;20033;-48
2022/04/23 05:04:06;;;;;;;19.15;14.75;;;6.50;99.90;;;;;;5056321;28;20036;-47
2022/04/23 05:06:32;;;;;;;19.98;15.00;;;6.50;99.90;;;;;;5058056;28;20023;-47
2022/04/23 05:08:58;;;;;;;19.98;13.93;;;6.50;99.90;;;;;;5054333;28;20032;-50
2022/04/23 05:11:24;;;;;;;16.02;13.20;;;6.60;99.90;;;;;;5052128;28;20049;-49
2022/04/23 05:13:50;;;;;;;19.48;13.68;;;6.60;99.90;;;;;;5079847;28;20016;-48
2022/04/23 05:16:16;;;;;;;18.55;14.23;;;6.60;99.90;;;;;;5088776;28;20235;-47
2022/04/23 05:18:41;;;;;;;18.30;14.10;;;6.70;99.90;;;;;;5074984;28;20493;-50
2022/04/23 05:21:07;;;;;;;20.13;14.32;;;6.70;99.90;;;;;;5068513;28;20032;-47
2022/04/23 05:23:32;;;;;;;23.17;14.77;;;6.70;99.90;;;;;;5068077;28;20158;-48
2022/04/23 05:25:58;;;;;;;20.35;14.48;;;6.70;99.90;;;;;;5064271;28;20036;-47
2022/04/23 05:28:23;;;;;;;19.33;15.20;;;6.70;99.90;;;;;;5058987;28;20059;-49
2022/04/23 05:30:49;;;;;;;19.52;15.15;;;6.70;99.90;;;;;;5050969;28;20021;-49
2022/04/23 05:33:15;;;;;;;19.70;13.98;;;6.80;99.90;;;;;;5046103;28;20024;-48
2022/04/23 05:35:40;;;;;;;21.13;14.68;;;6.80;99.90;;;;;;5046977;28;20707;-50
2022/04/23 05:38:06;;;;;;;20.77;14.18;;;6.90;99.90;;;;;;5051988;28;20494;-48
2022/04/23 05:40:32;;;;;;;19.25;13.82;;;6.90;99.90;;;;;;5056632;28;20025;-49
2022/04/23 05:42:58;;;;;;;20.65;14.48;;;6.90;99.90;;;;;;5059289;28;20025;-48
2022/04/23 05:45:28;;;;;;;21.17;14.00;;;6.90;99.90;;;;;;5064593;28;20017;-49
2022/04/23 05:47:54;;;;;;;21.05;15.25;;;7.00;99.90;;;;;;5056110;28;20585;-46
2022/04/23 05:50:20;;;;;;;19.45;14.75;;;7.00;99.90;;;;;;5052590;28;20049;-47
2022/04/23 05:52:46;;;;;;;21.10;15.55;;;7.10;99.90;;;;;;5064761;28;20113;-46
2022/04/23 05:55:11;;;;;;;24.50;15.88;;;7.10;99.90;;;;;;5068154;28;20094;-48
2022/04/23 05:57:38;;;;;;;21.08;15.68;;;7.20;99.90;;;;;;5061791;28;20447;-47
2022/04/23 06:00:05;;;;;;;23.33;15.90;;;7.20;99.90;;;;;;5055090;28;20119;-47
2022/04/23 06:02:31;;;;;;;19.98;15.30;;;7.20;99.90;;;;;;5064851;28;20105;-47
2022/04/23 06:04:57;;;;;;;20.20;15.38;;;7.30;99.90;;;;;;5066407;28;20028;-47
2022/04/23 06:07:23;;;;;;;20.55;16.13;;;7.30;99.90;;;;;;5055698;28;20528;-46
2022/04/23 06:09:48;;;;;;;23.38;15.68;;;7.40;99.90;;;;;;5061105;28;20116;-47
2022/04/23 06:12:14;;;;;;;19.83;15.90;;;7.50;99.90;;;;;;5063424;28;20244;-47
2022/04/23 06:14:39;;;;;;;22.30;15.95;;;7.50;99.90;;;;;;5079361;28;20561;-47
2022/04/23 06:17:10;;;;;;;23.65;17.25;;;7.60;99.90;;;;;;5068492;28;20020;-47
2022/04/23 06:19:37;;;;;;;21.17;15.57;;;7.70;99.90;;;;;;5053909;28;20093;-47
2022/04/23 06:22:03;;;;;;;25.95;15.52;;;7.80;99.90;;;;;;5050942;28;20032;-47
2022/04/23 06:24:28;;;;;;;19.33;15.30;;;7.80;99.90;;;;;;5049991;28;20331;-48
2022/04/23 06:26:54;;;;;;;20.52;15.05;;;7.90;99.90;;;;;;5049692;28;20025;-47
2022/04/23 06:29:19;;;;;;;21.42;15.77;;;8.00;99.90;;;;;;5054515;28;20099;-47
2022/04/23 06:31:45;;;;;;;19.88;14.90;;;8.00;99.90;;;;;;5070473;28;20032;-48
2022/04/23 06:34:10;;;;;;;19.15;14.93;;;8.10;99.90;;;;;;5070305;28;20032;-46
2022/04/23 06:36:40;;;;;;;20.35;14.73;;;8.10;99.90;;;;;;5071132;28;20024;-47
2022/04/23 06:39:08;;;;;;;22.67;15.98;;;8.20;99.90;;;;;;5071631;28;20025;-47
2022/04/23 06:41:34;;;;;;;22.50;15.98;;;8.30;99.90;;;;;;5072617;28;20031;-49
2022/04/23 06:43:59;;;;;;;20.92;15.90;;;8.40;99.90;;;;;;5082788;28;20028;-48
2022/04/23 06:46:25;;;;;;;21.27;16.48;;;8.50;99.90;;;;;;5068010;28;20387;-50
2022/04/23 06:48:51;;;;;;;22.13;16.60;;;8.60;99.90;;;;;;5056441;28;20406;-48
2022/04/23 06:51:16;;;;;;;19.95;16.15;;;8.60;99.90;;;;;;5063346;28;20478;-48
2022/04/23 06:53:42;;;;;;;22.15;17.00;;;8.70;99.90;;;;;;5070469;28;20495;-48
2022/04/23 06:56:08;;;;;;;22.88;16.65;;;8.80;99.90;;;;;;5053269;28;20025;-47
2022/04/23 06:58:34;;;;;;;23.23;16.52;;;8.90;99.90;;;;;;5067434;28;20043;-48
2022/04/23 07:01:00;;;;;;;24.77;15.15;;;9.00;99.90;;;;;;5070689;28;20115;-48
2022/04/23 07:03:26;;;;;;;25.90;16.25;;;9.20;99.90;;;;;;5070139;28;20624;-49
2022/04/23 07:05:51;;;;;;;21.98;16.08;;;9.20;99.90;;;;;;5070828;28;20078;-49
2022/04/23 07:08:17;;;;;;;22.23;15.88;;;9.30;99.90;;;;;;5070779;28;20206;-49
2022/04/23 07:10:44;;;;;;;20.27;15.32;;;9.40;99.90;;;;;;5071274;28;20016;-48
2022/04/23 07:13:11;;;;;;;24.52;16.42;;;9.50;99.90;;;;;;5076292;28;20028;-47
2022/04/23 07:15:37;;;;;;;21.92;15.77;;;9.70;99.90;;;;;;5091249;28;20254;-49
2022/04/23 07:18:03;;;;;;;23.42;16.70;;;9.70;99.90;;;;;;5090023;28;20032;-47
2022/04/23 07:20:28;;;;;;;21.67;16.00;;;9.80;99.90;;;;;;5090575;28;20310;-48
2022/04/23 07:25:38;;;;;;;20.50;15.25;;;10.00;99.90;;;;;;5090630;28;20437;-48
2022/04/23 07:28:04;;;;;;;21.63;16.40;;;10.10;99.90;;;;;;5090111;28;20032;-49
2022/04/23 07:30:31;;;;;;;21.77;16.42;;;10.30;99.90;;;;;;5077877;28;20053;-51
2022/04/23 07:32:57;;;;;;;19.58;15.60;;;10.40;99.90;;;;;;5050232;28;20036;-49
2022/04/23 07:38:20;;;;;;;20.92;15.95;;;10.60;99.90;;;;;;5058151;28;20052;-48
2022/04/23 07:40:50;;;;;;;17.48;13.80;;;10.80;99.90;;;;;;5050172;28;20518;-48
2022/04/23 07:43:16;;;;;;;22.52;15.18;;;10.90;99.90;;;;;;5075271;28;20024;-47
2022/04/23 07:45:44;;;;;;;19.52;14.13;;;11.20;99.90;;;;;;5090397;28;20031;-48
2022/04/23 07:48:11;;;;;;;18.88;14.93;;;11.30;99.90;;;;;;5090091;28;20119;-48
2022/04/23 07:50:39;;;;;;;17.63;13.68;;;11.60;99.90;;;;;;5088779;28;20177;-48
2022/04/23 07:53:05;;;;;;;16.75;13.40;;;11.80;99.90;;;;;;5089200;28;20032;-49
2022/04/23 07:55:37;;;;;;;18.42;13.65;;;11.90;99.90;;;;;;5088780;28;20342;-47
2022/04/23 07:58:04;;;;;;;14.75;11.70;;;12.00;99.90;;;;;;5089642;28;20537;-47
2022/04/23 08:00:31;;;;;;;13.63;11.38;;;12.60;98.90;;;;;;5089855;28;20035;-50
2022/04/23 08:02:57;;;;;;;12.95;10.85;;;13.20;97.00;;;;;;5089549;28;20050;-48
2022/04/23 08:05:23;;;;;;;13.10;9.68;;;14.20;94.20;;;;;;5089843;28;20370;-48
2022/04/23 08:07:48;;;;;;;10.60;8.98;;;15.30;92.20;;;;;;5089819;28;20324;-49
2022/04/23 08:10:14;;;;;;;11.65;9.27;;;16.90;86.50;;;;;;5089645;28;20123;-49
2022/04/23 08:12:39;;;;;;;10.40;8.57;;;18.70;73.30;;;;;;5083045;28;20090;-49
2022/04/23 08:15:06;;;;;;;11.65;10.23;;;19.90;67.60;;;;;;5084375;28;20031;-48
2022/04/23 08:17:32;;;;;;;10.20;9.30;;;20.50;65.00;;;;;;5089831;28;20043;-50
2022/04/23 08:19:57;;;;;;;8.75;7.65;;;21.60;55.40;;;;;;5088196;28;20024;-48
2022/04/23 08:22:23;;;;;;;8.23;7.43;;;22.30;55.50;;;;;;5089016;28;20023;-48
2022/04/23 08:24:48;;;;;;;9.48;8.57;;;23.40;53.20;;;;;;5089473;28;20028;-48
2022/04/23 08:27:14;;;;;;;8.05;6.90;;;24.10;49.70;;;;;;5080736;28;20042;-48
2022/04/23 08:32:23;;;;;;;7.57;6.88;;;25.20;47.90;;;;;;5058103;28;20521;-50
2022/04/23 08:34:49;;;;;;;7.43;6.72;;;26.20;46.40;;;;;;5059137;28;20037;-51
2022/04/23 08:37:14;;;;;;;7.13;6.43;;;26.30;45.80;;;;;;5057751;28;20048;-50
2022/04/23 08:39:42;;;;;;;7.28;6.55;;;26.50;44.20;;;;;;5065296;28;20036;-49
2022/04/23 08:42:09;;;;;;;7.22;6.30;;;26.90;42.80;;;;;;5061183;28;20383;-48
2022/04/23 08:44:37;;;;;;;7.20;6.25;;;27.50;39.90;;;;;;5055952;28;20056;-48
2022/04/23 08:47:04;;;;;;;6.63;6.03;;;26.80;41.30;;;;;;5056432;28;20023;-48
2022/04/23 08:49:32;;;;;;;6.18;5.50;;;27.60;41.00;;;;;;5063776;28;20042;-47
2022/04/23 08:52:09;;;;;;;7.35;6.70;;;27.40;41.40;;;;;;5061304;28;20114;-50
2022/04/23 08:54:36;;;;;;;6.55;5.95;;;27.90;40.80;;;;;;5046495;28;20485;-48
2022/04/23 08:57:02;;;;;;;5.95;5.30;;;28.40;38.90;;;;;;5047718;28;20516;-49
2022/04/23 08:59:27;;;;;;;5.55;4.97;;;27.70;39.20;;;;;;5052222;28;20024;-48
2022/04/23 09:01:53;;;;;;;5.43;4.68;;;28.10;39.30;;;;;;5056094;28;20032;-48
2022/04/23 09:04:19;;;;;;;5.10;4.65;;;28.20;38.20;;;;;;5058616;28;20020;-48
2022/04/23 09:06:47;;;;;;;4.72;4.32;;;29.40;37.30;;;;;;5047867;28;20120;-48
2022/04/23 09:09:17;;;;;;;4.80;4.40;;;29.20;37.90;;;;;;5047867;28;20021;-48
2022/04/23 09:11:56;;;;;;;4.65;4.25;;;29.40;37.30;;;;;;5046572;28;20556;-51
2022/04/23 09:14:27;;;;;;;4.72;4.10;;;29.80;35.90;;;;;;5071948;28;20066;-48
2022/04/23 09:25:17;;;;;;;5.53;5.03;;;29.90;36.20;;;;;;5063884;28;20108;-49
2022/04/23 09:27:43;;;;;;;6.47;4.35;;;30.20;35.90;;;;;;5060623;28;20139;-49
2022/04/23 09:30:11;;;;;;;5.57;5.07;;;30.70;35.60;;;;;;5058958;28;20490;-49
2022/04/23 09:32:37;;;;;;;6.55;5.13;;;30.90;34.50;;;;;;5056983;28;20021;-49
2022/04/23 09:35:10;;;;;;;5.25;4.75;;;30.90;34.30;;;;;;5058933;28;20147;-48
2022/04/23 09:40:23;;;;;;;4.90;4.47;;;30.10;33.10;;;;;;5060969;28;20051;-41
2022/04/23 09:43:00;;;;;;;4.97;4.43;;;29.70;36.30;;;;;;5064869;28;20103;-40
2022/04/23 09:45:29;;;;;;;5.57;5.07;;;30.10;36.60;;;;;;5070920;28;20070;-40
2022/04/23 09:48:16;;;;;;;4.75;4.32;;;29.80;36.20;;;;;;5063518;28;20017;-41
2022/04/23 09:50:44;;;;;;;6.03;4.63;;;30.30;34.60;;;;;;5063192;28;20025;-40
2022/04/23 09:53:11;;;;;;;5.10;4.53;;;30.50;34.20;;;;;;5060913;28;20013;-41
2022/04/23 09:55:37;;;;;;;4.50;4.10;;;30.60;34.00;;;;;;5063265;28;20017;-40
2022/04/23 09:58:07;;;;;;;5.40;4.40;;;30.80;34.30;;;;;;5064190;28;20036;-40
2022/04/23 10:00:36;;;;;;;6.35;4.38;;;31.30;33.90;;;;;;5062895;28;20067;-41
2022/04/23 10:03:06;;;;;;;5.05;4.35;;;30.70;33.40;;;;;;5062008;28;20032;-40
2022/04/23 10:05:39;;;;;;;5.18;4.68;;;30.50;33.70;;;;;;5063144;28;20537;-39
2022/04/23 10:08:11;;;;;;;4.30;3.90;;;30.40;33.20;;;;;;5064051;28;20020;-39
2022/04/23 10:10:45;;;;;;;5.53;4.45;;;30.30;33.90;;;;;;5062117;28;20025;-39
2022/04/23 10:13:12;;;;;;;6.35;4.18;;;30.00;33.60;;;;;;5064680;28;20026;-39
2022/04/23 10:15:40;;;;;;;4.20;3.90;;;30.30;34.60;;;;;;5065553;28;20037;-40
2022/04/23 10:18:08;;;;;;;4.88;3.95;;;30.40;33.90;;;;;;5064216;28;20159;-40
2022/04/23 10:20:34;;;;;;;3.83;3.53;;;30.80;33.80;;;;;;5058480;28;20037;-41
2022/04/23 10:23:27;;;;;;;4.47;4.07;;;31.00;34.50;;;;;;5062985;28;20028;-40
2022/04/23 10:26:32;;;;;;;5.50;5.00;;;30.90;33.10;;;;;;5055748;28;20040;-40
2022/04/23 10:28:58;;;;;;;5.93;3.95;;;30.50;32.70;;;;;;5065039;28;20021;-39
2022/04/23 10:31:23;;;;;;;4.07;3.67;;;30.10;33.80;;;;;;5059393;28;20032;-40
2022/04/23 10:33:52;;;;;;;4.50;4.15;;;30.70;33.80;;;;;;5060527;28;20039;-39
2022/04/23 10:36:19;;;;;;;4.50;4.13;;;30.70;34.20;;;;;;5061862;28;20028;-39
2022/04/23 10:38:51;;;;;;;4.18;3.80;;;30.70;33.50;;;;;;5062509;28;20027;-40
2022/04/23 10:41:19;;;;;;;4.47;4.07;;;30.90;33.10;;;;;;5062785;28;20058;-40
2022/04/23 10:43:49;;;;;;;4.38;3.97;;;31.10;33.60;;;;;;5061844;28;20108;-41
2022/04/23 10:46:37;;;;;;;4.18;3.88;;;31.50;33.20;;;;;;5055702;28;20056;-40
2022/04/23 10:49:18;;;;;;;3.45;3.15;;;31.90;33.90;;;;;;5052728;28;20458;-40
2022/04/23 10:51:51;;;;;;;3.75;3.45;;;32.00;32.50;;;;;;5062603;28;20032;-40
2022/04/23 10:54:20;;;;;;;4.60;3.80;;;32.40;32.30;;;;;;5054866;28;20032;-40
2022/04/23 10:56:55;;;;;;;3.42;3.13;;;32.50;32.20;;;;;;5075048;28;20458;-41
2022/04/23 10:59:47;;;;;;;4.80;4.00;;;32.10;32.90;;;;;;5082899;28;20024;-40
2022/04/23 11:02:29;;;;;;;4.70;4.00;;;32.10;31.30;;;;;;5090713;28;20035;-38
2022/04/23 11:13:29;;;;;;;4.40;4.00;;;31.30;32.90;;;;;;5072211;28;20358;-39
2022/04/23 11:16:16;;;;;;;4.25;3.85;;;31.30;32.70;;;;;;5085379;28;20026;-39
2022/04/23 11:18:46;;;;;;;5.20;3.80;;;31.20;32.40;;;;;;5090793;28;20043;-39
2022/04/23 11:21:13;;;;;;;4.70;4.20;;;30.80;34.30;;;;;;5090715;28;20485;-41
2022/04/23 11:23:45;;;;;;;6.07;5.07;;;30.90;34.60;;;;;;5090046;28;20039;-39
2022/04/23 11:26:12;;;;;;;4.60;4.18;;;30.80;34.40;;;;;;5090697;28;20116;-39
2022/04/23 11:28:40;;;;;;;4.00;3.70;;;30.40;33.90;;;;;;5090678;28;20024;-39
2022/04/23 11:31:14;;;;;;;4.63;3.65;;;30.50;33.50;;;;;;5090655;28;20513;-39
2022/04/23 11:33:59;;;;;;;5.05;3.60;;;29.90;33.60;;;;;;5089903;28;20107;-39
2022/04/23 11:36:30;;;;;;;4.20;3.80;;;29.90;34.60;;;;;;5090523;28;20389;-39
2022/04/23 11:38:57;;;;;;;4.35;3.80;;;30.20;34.10;;;;;;5090493;28;20468;-40
2022/04/23 11:41:30;;;;;;;4.20;3.65;;;30.40;34.20;;;;;;5089335;28;20031;-38
2022/04/23 11:43:56;;;;;;;4.18;3.75;;;30.40;33.30;;;;;;5072580;28;20028;-40
2022/04/23 11:46:21;;;;;;;4.15;3.75;;;30.00;33.60;;;;;;5088319;28;20098;-40
2022/04/23 11:48:48;;;;;;;4.00;3.40;;;30.30;32.80;;;;;;5090543;28;20016;-40
2022/04/23 11:51:15;;;;;;;5.57;4.10;;;29.90;35.30;;;;;;5090399;28;20020;-40
2022/04/23 11:53:49;;;;;;;3.88;3.45;;;29.90;33.60;;;;;;5089812;28;20024;-40
2022/04/23 11:56:32;;;;;;;4.35;3.63;;;30.00;33.80;;;;;;5090524;28;20020;-38
2022/04/23 11:59:06;;;;;;;3.65;3.35;;;30.10;33.00;;;;;;5090113;28;20024;-39
2022/04/23 12:01:32;;;;;;;3.58;3.28;;;29.80;35.00;;;;;;5089694;28;20035;-39
2022/04/23 12:03:58;;;;;;;3.60;3.30;;;29.70;33.00;;;;;;5089828;28;20020;-39
2022/04/23 12:06:25;;;;;;;6.13;4.30;;;29.50;33.00;;;;;;5089823;28;20254;-42
2022/04/23 12:09:05;;;;;;;4.57;4.10;;;28.90;34.00;;;;;;5139418;27;20279;-38
2022/04/23 12:11:30;;;;;;;4.18;3.78;;;28.00;34.80;;;;;;5104065;28;20542;-38
2022/04/23 12:13:56;;;;;;;3.67;3.38;;;27.30;36.20;;;;;;5112775;28;20032;-38
2022/04/23 12:16:36;;;;;;;4.72;3.80;;;26.90;36.20;;;;;;5125051;28;20042;-39
2022/04/23 12:19:13;;;;;;;4.65;4.03;;;26.40;37.20;;;;;;5126746;27;20265;-38
2022/04/23 12:21:54;;;;;;;4.40;4.00;;;25.90;36.80;;;;;;5125915;27;20092;-37
2022/04/23 12:24:33;;;;;;;4.50;4.10;;;25.40;39.10;;;;;;5126786;27;20031;-38
2022/04/23 12:27:03;;;;;;;4.63;4.10;;;25.10;38.80;;;;;;5125163;27;20092;-38
2022/04/23 12:40:50;;;;;;;4.40;4.00;;;24.10;41.10;;;;;;5126389;28;20046;-39
2022/04/23 12:43:20;;;;;;;5.32;4.68;;;24.10;40.50;;;;;;5117559;27;20058;-38
2022/04/23 12:45:47;;;;;;;4.73;4.33;;;24.10;40.80;;;;;;5119451;27;20540;-41
2022/04/23 12:48:14;;;;;;;5.50;5.10;;;24.20;41.90;;;;;;5126829;28;20281;-40
2022/04/23 12:50:39;;;;;;;5.30;4.55;;;24.20;39.20;;;;;;5126536;27;20023;-39
2022/04/23 12:53:05;;;;;;;7.22;4.95;;;24.10;40.30;;;;;;5126144;27;20545;-44
2022/04/23 12:55:36;;;;;;;6.03;5.38;;;23.90;41.10;;;;;;5126102;28;20027;-40
2022/04/23 12:58:09;;;;;;;8.80;6.20;;;24.00;40.40;;;;;;5125823;27;20027;-40
2022/04/23 13:00:38;;;;;;;6.97;4.88;;;23.80;40.80;;;;;;5126097;27;20032;-39
2022/04/23 13:03:23;;;;;;;7.38;5.15;;;23.50;41.10;;;;;;5125365;27;20081;-39
2022/04/23 13:05:48;;;;;;;4.80;4.28;;;23.50;42.00;;;;;;5126056;27;20062;-39
2022/04/23 13:11:24;;;;;;;4.28;3.88;;;23.20;41.00;;;;;;5125658;28;20093;-38
2022/04/23 13:13:44;;;;;;;4.07;3.33;;;22.80;41.70;;;;;;5112491;28;20026;-40
2022/04/23 13:16:10;;;;;;;4.45;3.92;;;23.20;42.00;;;;;;5122303;28;20289;-39
2022/04/23 13:18:35;;;;;;;4.88;4.10;;;23.60;40.30;;;;;;5122440;27;20028;-39
2022/04/23 13:21:01;;;;;;;6.90;3.83;;;23.40;40.80;;;;;;5111968;28;20027;-39
2022/04/23 13:23:26;;;;;;;7.07;3.90;;;23.40;41.30;;;;;;5111299;28;20536;-39
2022/04/23 13:25:52;;;;;;;3.83;3.50;;;23.30;42.40;;;;;;5111857;28;20031;-39
2022/04/23 13:28:17;;;;;;;4.85;3.17;;;23.30;41.20;;;;;;5111476;28;20031;-40